Time;durP1;ratioP1;P1;durP2;ratioP2;P2;SDS_P1;SDS_P2;PMS_P1;PMS_P2;Temp;Humidity;BMP_temperature;BMP_pressure;BME280_temperature;BME280_humidity;BME280_pressure;Samples;Min_cycle;Max_cycle;Signal;HPM_P1;HPM_P2
2023/06/15 00:01:50;;;;;;;4.93;4.50;;;19.70;58.30;;;;;;10495976;28;20228;-79
2023/06/15 00:06:52;;;;;;;5.80;5.40;;;19.70;58.90;;;;;;10488374;28;20229;-80
2023/06/15 00:11:55;;;;;;;6.13;5.53;;;19.70;58.60;;;;;;10494197;28;20236;-80
2023/06/15 00:16:57;;;;;;;6.17;5.67;;;19.60;58.90;;;;;;10494642;28;20215;-80
2023/06/15 00:22:00;;;;;;;5.43;5.10;;;19.60;59.00;;;;;;10472753;28;20343;-79
2023/06/15 00:27:04;;;;;;;6.10;5.60;;;19.60;59.20;;;;;;10485133;28;20213;-80
2023/06/15 00:32:07;;;;;;;6.10;5.67;;;19.50;59.40;;;;;;10486137;28;20212;-80
2023/06/15 00:37:09;;;;;;;5.70;5.30;;;19.50;59.30;;;;;;10468879;28;20198;-79
2023/06/15 00:42:13;;;;;;;6.13;5.63;;;19.50;59.80;;;;;;10448585;28;20303;-79
2023/06/15 00:47:20;;;;;;;5.73;5.33;;;19.50;59.70;;;;;;10486346;28;20217;-79
2023/06/15 00:52:23;;;;;;;5.73;5.33;;;19.50;60.00;;;;;;10483519;28;20222;-80
2023/06/15 00:57:26;;;;;;;5.97;5.57;;;19.50;59.90;;;;;;10488292;28;20630;-78
2023/06/15 01:02:30;;;;;;;6.77;5.13;;;19.50;60.20;;;;;;10455062;28;20233;-79
2023/06/15 01:07:35;;;;;;;5.30;4.90;;;19.50;60.10;;;;;;10450696;28;20301;-79
2023/06/15 01:12:40;;;;;;;5.67;5.27;;;19.50;60.10;;;;;;10445506;28;20252;-79
2023/06/15 01:17:45;;;;;;;7.77;5.80;;;19.50;60.20;;;;;;10487959;28;20201;-80
2023/06/15 01:22:55;;;;;;;5.53;5.07;;;19.40;60.40;;;;;;10478247;28;20220;-79
2023/06/15 01:28:02;;;;;;;5.50;5.00;;;19.40;60.30;;;;;;10453436;28;20225;-78
2023/06/15 01:33:05;;;;;;;5.17;4.87;;;19.40;60.40;;;;;;10476132;28;20594;-79
2023/06/15 01:38:07;;;;;;;7.23;5.43;;;19.30;61.20;;;;;;10492535;28;20719;-78
2023/06/15 01:43:13;;;;;;;5.53;5.13;;;19.20;60.70;;;;;;10455159;28;20218;-78
2023/06/15 01:48:16;;;;;;;5.57;5.17;;;19.20;60.00;;;;;;10483592;28;20750;-80
2023/06/15 01:53:18;;;;;;;5.77;5.17;;;19.20;60.20;;;;;;10459797;28;20713;-79
2023/06/15 01:58:21;;;;;;;5.43;5.03;;;19.10;60.80;;;;;;10467603;28;20227;-79
2023/06/15 02:03:24;;;;;;;6.00;5.40;;;19.10;60.50;;;;;;10473325;28;20213;-79
2023/06/15 02:08:26;;;;;;;5.83;5.30;;;19.00;60.60;;;;;;10439016;28;20220;-79
2023/06/15 02:13:30;;;;;;;5.93;5.43;;;18.90;61.40;;;;;;10471618;28;20233;-79
2023/06/15 02:18:33;;;;;;;5.53;5.20;;;18.80;61.50;;;;;;10480710;28;20620;-79
2023/06/15 02:23:35;;;;;;;6.40;5.80;;;18.80;61.00;;;;;;10465606;28;20218;-78
2023/06/15 02:28:38;;;;;;;5.97;5.57;;;18.70;61.60;;;;;;10468232;28;20216;-79
2023/06/15 02:33:41;;;;;;;8.83;6.07;;;18.70;61.10;;;;;;10483065;28;20297;-80
2023/06/15 02:38:43;;;;;;;5.83;5.43;;;18.70;61.60;;;;;;10472832;28;20197;-80
2023/06/15 02:43:46;;;;;;;5.83;5.23;;;18.60;62.10;;;;;;10470281;28;20218;-79
2023/06/15 02:48:51;;;;;;;6.10;5.60;;;18.50;62.60;;;;;;10489516;28;20238;-78
2023/06/15 02:53:55;;;;;;;7.43;5.70;;;18.50;62.20;;;;;;10472100;28;20198;-80
2023/06/15 02:59:00;;;;;;;6.00;5.60;;;18.50;62.20;;;;;;10468789;28;20193;-79
2023/06/15 03:04:22;;;;;;;6.60;5.40;;;18.50;61.90;;;;;;10482582;28;20219;-79
2023/06/15 03:09:25;;;;;;;5.97;5.50;;;18.30;62.20;;;;;;10472886;28;20262;-79
2023/06/15 03:14:29;;;;;;;6.23;5.60;;;18.30;63.20;;;;;;10473106;28;20233;-77
2023/06/15 03:19:33;;;;;;;6.47;6.03;;;18.30;63.00;;;;;;10458155;28;20210;-79
2023/06/15 03:24:35;;;;;;;6.63;6.03;;;18.20;62.90;;;;;;10471789;28;20688;-78
2023/06/15 03:29:40;;;;;;;5.37;4.97;;;18.10;63.00;;;;;;10475282;28;20746;-79
2023/06/15 03:34:52;;;;;;;5.67;5.27;;;18.10;63.10;;;;;;10490483;28;20251;-77
2023/06/15 03:39:55;;;;;;;5.73;5.33;;;18.10;63.30;;;;;;10468487;28;20239;-77
2023/06/15 03:45:00;;;;;;;6.40;5.80;;;18.10;62.90;;;;;;10459174;28;20200;-77
2023/06/15 03:50:02;;;;;;;5.90;5.40;;;18.10;63.80;;;;;;10476096;28;20573;-77
2023/06/15 03:55:06;;;;;;;7.30;5.20;;;18.10;63.40;;;;;;10478083;28;20193;-77
2023/06/15 04:00:11;;;;;;;5.90;5.47;;;18.20;63.50;;;;;;10449041;28;20205;-77
2023/06/15 04:05:22;;;;;;;5.90;5.50;;;18.20;63.80;;;;;;10459190;28;20242;-77
2023/06/15 04:10:26;;;;;;;5.93;5.53;;;18.30;64.10;;;;;;10459967;28;20221;-78
2023/06/15 04:15:30;;;;;;;6.20;5.70;;;18.40;64.30;;;;;;10469348;28;20231;-78
2023/06/15 04:20:34;;;;;;;6.60;6.00;;;18.60;65.10;;;;;;10476911;28;20217;-78
2023/06/15 04:25:40;;;;;;;5.70;5.27;;;18.70;64.20;;;;;;10469669;28;20202;-78
2023/06/15 04:30:54;;;;;;;6.00;5.50;;;18.80;63.60;;;;;;10468112;28;20220;-79
2023/06/15 04:35:57;;;;;;;5.93;5.50;;;18.90;64.10;;;;;;10469469;28;20851;-79
2023/06/15 04:40:59;;;;;;;5.63;5.23;;;19.10;63.90;;;;;;10470847;28;20325;-78
2023/06/15 04:46:03;;;;;;;6.50;6.00;;;19.30;63.80;;;;;;10464878;28;20414;-80
2023/06/15 04:51:05;;;;;;;5.80;5.40;;;19.50;63.30;;;;;;10454824;28;20218;-79
2023/06/15 04:56:07;;;;;;;7.87;7.07;;;19.80;62.50;;;;;;10452843;28;20222;-79
2023/06/15 05:01:11;;;;;;;6.33;5.53;;;19.90;62.90;;;;;;10481110;28;20681;-79
2023/06/15 05:06:14;;;;;;;6.23;5.73;;;20.10;60.70;;;;;;10483549;28;20285;-79
2023/06/15 05:11:16;;;;;;;6.90;6.40;;;20.10;61.10;;;;;;10464369;28;20272;-79
2023/06/15 05:16:21;;;;;;;6.33;5.73;;;20.10;60.70;;;;;;10471019;28;20228;-79
2023/06/15 05:21:23;;;;;;;7.83;6.20;;;20.00;61.90;;;;;;10460104;28;20263;-79
2023/06/15 05:26:27;;;;;;;6.33;5.87;;;20.00;62.60;;;;;;10463819;28;20190;-78
2023/06/15 05:31:31;;;;;;;6.47;6.07;;;20.00;61.20;;;;;;10461941;28;20223;-78
2023/06/15 05:36:35;;;;;;;15.03;6.33;;;20.00;62.40;;;;;;10464261;28;20193;-78
2023/06/15 05:41:38;;;;;;;5.57;5.07;;;20.00;63.00;;;;;;10464868;28;20585;-79
2023/06/15 05:46:42;;;;;;;7.50;6.77;;;20.00;62.40;;;;;;10458007;28;20202;-78
2023/06/15 05:51:44;;;;;;;10.60;6.00;;;20.00;61.20;;;;;;10462529;28;20245;-78
2023/06/15 05:56:47;;;;;;;6.20;5.60;;;20.00;62.00;;;;;;10463252;28;20299;-78
2023/06/15 06:01:51;;;;;;;6.40;5.83;;;20.10;60.90;;;;;;10459909;28;20213;-78
2023/06/15 06:06:53;;;;;;;6.70;6.10;;;20.10;61.80;;;;;;10461678;28;20193;-78
2023/06/15 06:11:56;;;;;;;6.43;6.00;;;20.10;61.30;;;;;;10461718;28;20245;-77
2023/06/15 06:17:00;;;;;;;6.00;5.50;;;20.10;61.20;;;;;;10470330;28;20193;-80
2023/06/15 06:22:02;;;;;;;5.67;5.27;;;20.20;58.90;;;;;;10461321;28;20205;-77
2023/06/15 06:27:06;;;;;;;9.07;5.00;;;20.20;59.70;;;;;;10462251;28;20228;-80
2023/06/15 06:32:10;;;;;;;6.10;5.70;;;20.30;59.00;;;;;;10453396;28;20217;-80
2023/06/15 06:37:12;;;;;;;6.30;5.87;;;20.30;58.40;;;;;;10486000;28;20221;-79
2023/06/15 06:42:14;;;;;;;6.40;5.80;;;20.40;58.40;;;;;;10472012;28;20206;-78
2023/06/15 06:47:23;;;;;;;7.03;6.47;;;20.70;58.90;;;;;;10479923;28;20223;-81
2023/06/15 06:52:25;;;;;;;6.37;5.87;;;21.00;58.10;;;;;;10485720;28;20209;-79
2023/06/15 06:57:28;;;;;;;5.37;4.97;;;21.30;58.10;;;;;;10487509;28;20201;-80
2023/06/15 07:02:32;;;;;;;5.87;5.47;;;21.70;58.40;;;;;;10488224;28;20221;-78
2023/06/15 07:07:34;;;;;;;7.03;6.43;;;21.90;57.80;;;;;;10481932;28;20552;-79
2023/06/15 07:12:36;;;;;;;7.00;5.70;;;22.30;56.60;;;;;;10479238;28;20247;-79
2023/06/15 07:17:40;;;;;;;6.40;5.80;;;22.50;57.00;;;;;;10472514;28;20645;-79
2023/06/15 07:22:43;;;;;;;6.27;5.77;;;22.90;56.00;;;;;;10500393;28;20225;-79
2023/06/15 07:27:45;;;;;;;6.33;5.77;;;23.40;56.00;;;;;;10503373;28;20225;-80
2023/06/15 07:32:48;;;;;;;6.37;5.87;;;23.80;55.40;;;;;;10483479;28;20237;-79
2023/06/15 07:37:51;;;;;;;6.50;5.37;;;24.30;55.30;;;;;;10495601;28;20205;-78
2023/06/15 07:42:53;;;;;;;5.77;5.37;;;24.80;54.90;;;;;;10499319;28;20209;-78
2023/06/15 07:47:56;;;;;;;5.50;5.00;;;25.30;53.70;;;;;;10489954;28;20261;-80
2023/06/15 07:52:58;;;;;;;6.17;5.67;;;25.80;53.30;;;;;;10487270;28;20214;-78
2023/06/15 07:58:00;;;;;;;6.30;5.80;;;26.30;52.50;;;;;;10486901;28;20310;-79
2023/06/15 08:03:04;;;;;;;5.30;4.90;;;26.70;50.80;;;;;;10485922;28;20312;-80
2023/06/15 08:08:06;;;;;;;5.40;5.00;;;27.10;50.90;;;;;;10476268;28;20218;-79
2023/06/15 08:13:08;;;;;;;5.50;5.20;;;27.40;50.20;;;;;;10473639;28;20225;-80
2023/06/15 08:18:12;;;;;;;5.33;4.30;;;27.80;49.70;;;;;;10484512;28;20194;-79
2023/06/15 08:23:14;;;;;;;5.60;5.13;;;28.20;49.80;;;;;;10441596;28;20221;-78
2023/06/15 08:28:16;;;;;;;5.80;5.30;;;28.50;49.10;;;;;;10486673;28;20217;-80
2023/06/15 08:33:20;;;;;;;5.30;4.90;;;28.90;47.90;;;;;;10474520;28;20240;-79
2023/06/15 08:38:22;;;;;;;5.50;5.00;;;29.10;47.50;;;;;;10481345;28;20652;-80
2023/06/15 08:43:26;;;;;;;5.70;5.30;;;29.30;47.40;;;;;;10453772;28;20302;-81
2023/06/15 08:48:33;;;;;;;5.47;5.07;;;29.40;47.30;;;;;;10482069;28;20272;-80
2023/06/15 08:53:37;;;;;;;5.00;4.70;;;29.60;47.60;;;;;;10455610;28;20217;-81
2023/06/15 08:58:39;;;;;;;5.00;4.60;;;29.80;47.40;;;;;;10462351;28;20675;-81
2023/06/15 09:03:43;;;;;;;5.50;5.10;;;30.00;47.30;;;;;;10478300;28;20267;-81
2023/06/15 09:08:46;;;;;;;5.73;5.33;;;30.30;46.20;;;;;;10468536;28;20319;-80
2023/06/15 09:13:50;;;;;;;7.23;6.53;;;30.60;46.00;;;;;;10447550;28;20490;-80
2023/06/15 09:18:54;;;;;;;4.93;4.63;;;30.80;46.40;;;;;;10481945;28;20205;-80
2023/06/15 09:24:04;;;;;;;4.97;4.57;;;31.10;45.50;;;;;;10470693;28;20277;-77
2023/06/15 09:29:09;;;;;;;5.07;4.50;;;31.60;44.30;;;;;;10469449;28;20309;-79
2023/06/15 09:34:14;;;;;;;5.23;4.73;;;31.80;44.90;;;;;;10475165;28;20581;-78
2023/06/15 09:39:22;;;;;;;4.30;4.00;;;32.40;44.00;;;;;;10476502;28;20271;-77
2023/06/15 09:44:25;;;;;;;5.10;4.40;;;33.20;42.00;;;;;;10464435;28;20731;-78
2023/06/15 09:49:31;;;;;;;4.20;3.90;;;34.00;41.00;;;;;;10475896;28;20232;-77
2023/06/15 09:54:33;;;;;;;3.77;3.57;;;34.50;40.30;;;;;;10481494;28;20200;-77
2023/06/15 09:59:37;;;;;;;3.70;3.50;;;33.50;39.70;;;;;;10470836;28;20217;-77
2023/06/15 10:04:43;;;;;;;5.53;4.30;;;32.40;41.30;;;;;;10472995;28;20201;-78
2023/06/15 10:15:04;;;;;;;3.53;3.33;;;35.20;39.20;;;;;;10406001;28;20206;-80
2023/06/15 10:20:12;;;;;;;15.13;4.47;;;37.10;38.00;;;;;;10409215;28;20331;-79
2023/06/15 10:25:15;;;;;;;3.95;3.75;;;38.10;34.60;;;;;;10397531;28;20217;-78
2023/06/15 10:30:28;;;;;;;3.90;3.60;;;36.80;34.00;;;;;;10407328;28;20226;-79
2023/06/15 10:35:38;;;;;;;4.40;4.00;;;34.70;35.30;;;;;;10407433;28;20225;-79
2023/06/15 10:40:47;;;;;;;4.50;4.20;;;33.10;37.90;;;;;;10410403;28;20221;-78
2023/06/15 10:45:49;;;;;;;3.80;3.60;;;31.90;40.30;;;;;;10406692;28;20237;-78
2023/06/15 10:51:03;;;;;;;4.40;4.00;;;31.00;40.70;;;;;;10412782;28;20272;-77
2023/06/15 10:56:13;;;;;;;4.60;4.30;;;30.20;41.70;;;;;;10405278;28;20576;-79
2023/06/15 11:01:16;;;;;;;5.13;4.73;;;29.50;41.60;;;;;;10409962;28;20211;-78
2023/06/15 11:06:22;;;;;;;3.93;3.73;;;28.90;42.50;;;;;;10409049;28;20298;-79
2023/06/15 11:11:31;;;;;;;4.30;4.00;;;28.50;43.50;;;;;;10411001;28;20214;-78
2023/06/15 11:16:35;;;;;;;4.43;4.03;;;28.30;43.70;;;;;;10414016;28;20257;-78
2023/06/15 11:21:40;;;;;;;4.23;4.03;;;28.20;44.30;;;;;;10414280;28;20759;-77
2023/06/15 11:26:43;;;;;;;3.83;3.63;;;28.20;43.10;;;;;;10413852;28;20209;-78
2023/06/15 11:31:45;;;;;;;4.70;4.00;;;28.00;43.30;;;;;;10413635;28;20276;-77
2023/06/15 11:36:49;;;;;;;3.97;3.77;;;27.80;44.00;;;;;;10413638;28;20249;-77
2023/06/15 11:41:53;;;;;;;4.23;3.93;;;27.40;44.40;;;;;;10412317;28;20324;-77
2023/06/15 11:46:56;;;;;;;4.27;3.90;;;27.30;43.80;;;;;;10411715;28;20211;-76
2023/06/15 11:52:00;;;;;;;3.70;3.50;;;27.30;43.60;;;;;;10413067;28;20589;-77
2023/06/15 11:57:02;;;;;;;3.90;3.60;;;27.40;42.90;;;;;;10412689;28;20203;-77
2023/06/15 12:02:05;;;;;;;4.33;4.00;;;27.60;42.50;;;;;;10412663;28;20581;-78
2023/06/15 12:07:08;;;;;;;4.90;3.90;;;27.70;42.50;;;;;;10412263;28;20198;-77
2023/06/15 12:12:29;;;;;;;5.87;5.43;;;27.60;42.50;;;;;;10409703;28;20781;-78
2023/06/15 12:17:32;;;;;;;4.80;4.50;;;27.50;43.90;;;;;;10409823;28;20206;-78
2023/06/15 12:22:42;;;;;;;5.00;4.63;;;27.50;45.50;;;;;;10412077;28;20690;-78
2023/06/15 12:27:45;;;;;;;4.37;4.07;;;27.50;45.70;;;;;;10411585;28;20212;-78
2023/06/15 12:32:49;;;;;;;3.80;3.60;;;27.40;45.30;;;;;;10411984;28;20256;-76
2023/06/15 12:37:52;;;;;;;5.00;4.60;;;27.30;45.60;;;;;;10426833;28;20225;-79
2023/06/15 12:42:59;;;;;;;4.17;3.90;;;27.20;45.30;;;;;;10411103;28;20697;-78
2023/06/15 12:48:02;;;;;;;4.70;4.40;;;27.00;44.30;;;;;;10411016;28;20303;-77
2023/06/15 12:53:06;;;;;;;4.80;4.30;;;26.80;44.60;;;;;;10411054;28;20717;-75
2023/06/15 12:58:08;;;;;;;3.73;3.50;;;26.70;44.90;;;;;;10409034;28;20202;-77
2023/06/15 13:03:11;;;;;;;5.60;3.80;;;26.60;44.00;;;;;;10409040;28;20695;-76
2023/06/15 13:08:16;;;;;;;4.00;3.70;;;26.60;44.90;;;;;;10409819;28;20206;-76
2023/06/15 13:13:18;;;;;;;5.30;4.80;;;26.60;44.40;;;;;;10409846;28;20733;-76
2023/06/15 13:18:21;;;;;;;4.10;3.90;;;26.60;45.00;;;;;;10419581;28;20195;-77
2023/06/15 13:23:24;;;;;;;4.60;4.30;;;26.70;44.60;;;;;;10408962;28;20203;-77
2023/06/15 13:28:26;;;;;;;4.57;4.27;;;26.60;44.30;;;;;;10409563;28;20622;-78
2023/06/15 13:33:29;;;;;;;5.53;4.23;;;26.60;44.00;;;;;;10409247;28;20219;-78
2023/06/15 13:38:32;;;;;;;4.33;3.83;;;26.50;44.90;;;;;;10407682;28;20229;-76
2023/06/15 13:43:34;;;;;;;3.67;3.47;;;26.40;43.70;;;;;;10409054;28;20218;-77
2023/06/15 13:48:36;;;;;;;4.40;4.10;;;26.40;44.50;;;;;;10408827;28;20372;-77
2023/06/15 13:53:40;;;;;;;4.00;3.70;;;26.40;45.00;;;;;;10408088;28;20230;-78
2023/06/15 13:58:42;;;;;;;4.67;4.27;;;26.40;45.30;;;;;;10407343;28;20670;-77
2023/06/15 14:03:44;;;;;;;3.37;3.17;;;26.40;45.30;;;;;;10408603;28;20211;-77
2023/06/15 14:08:48;;;;;;;6.63;3.70;;;26.40;44.80;;;;;;10408312;28;20654;-78
2023/06/15 14:13:52;;;;;;;4.17;3.87;;;26.30;44.70;;;;;;10407656;28;20277;-76
2023/06/15 14:18:55;;;;;;;4.30;3.90;;;26.20;45.00;;;;;;10392250;28;20584;-78
2023/06/15 14:23:58;;;;;;;3.70;3.37;;;26.00;45.20;;;;;;10408130;28;20214;-77
2023/06/15 14:29:00;;;;;;;4.40;4.10;;;25.80;45.80;;;;;;10407623;28;20248;-76
2023/06/15 14:34:03;;;;;;;3.80;3.17;;;25.80;45.10;;;;;;10410862;28;20673;-77
2023/06/15 14:39:07;;;;;;;3.80;3.60;;;25.80;45.60;;;;;;10416183;28;20687;-76
2023/06/15 14:44:11;;;;;;;3.87;3.57;;;25.80;45.10;;;;;;10414499;28;20241;-76
2023/06/15 14:49:13;;;;;;;3.97;3.77;;;25.70;44.50;;;;;;10415477;28;20290;-78
2023/06/15 14:54:17;;;;;;;3.57;3.37;;;25.70;46.10;;;;;;10414200;28;20218;-78
2023/06/15 14:59:19;;;;;;;3.50;3.30;;;25.80;45.60;;;;;;10413358;28;20206;-78
2023/06/15 15:04:21;;;;;;;4.37;3.10;;;25.80;43.90;;;;;;10414762;28;20218;-77
2023/06/15 15:09:24;;;;;;;3.27;3.03;;;25.80;45.10;;;;;;10414096;28;20662;-78
2023/06/15 15:14:26;;;;;;;3.33;3.10;;;25.70;44.60;;;;;;10414024;28;20233;-78
2023/06/15 15:19:29;;;;;;;3.70;3.40;;;25.60;44.30;;;;;;10414419;28;20253;-79
2023/06/15 15:24:32;;;;;;;3.00;2.80;;;25.60;43.90;;;;;;10414231;28;20225;-77
2023/06/15 15:29:34;;;;;;;3.40;3.10;;;25.60;42.60;;;;;;10415168;28;20219;-78
2023/06/15 15:34:36;;;;;;;2.73;2.63;;;25.50;42.70;;;;;;10423471;28;20218;-78
2023/06/15 15:39:40;;;;;;;4.00;3.70;;;25.50;42.20;;;;;;10415677;28;20198;-78
2023/06/15 15:44:42;;;;;;;3.20;2.90;;;25.50;41.10;;;;;;10410042;28;20560;-79
2023/06/15 15:49:44;;;;;;;2.80;2.60;;;25.50;41.90;;;;;;10410771;28;20219;-80
2023/06/15 15:54:47;;;;;;;3.20;3.00;;;25.50;42.90;;;;;;10412741;28;20671;-79
2023/06/15 15:59:49;;;;;;;3.63;3.33;;;25.50;43.10;;;;;;10411440;28;20199;-78
2023/06/15 16:04:52;;;;;;;3.23;3.03;;;25.50;42.40;;;;;;10412644;28;20202;-79
2023/06/15 16:09:55;;;;;;;3.33;3.13;;;25.50;42.30;;;;;;10413074;28;20207;-79
2023/06/15 16:14:57;;;;;;;4.13;3.77;;;25.50;42.10;;;;;;10521695;23;20278;-79
2023/06/15 16:19:59;;;;;;;3.80;3.50;;;25.50;41.00;;;;;;10554661;28;20184;-79
2023/06/15 16:25:03;;;;;;;3.40;3.17;;;25.50;41.90;;;;;;10566387;28;20262;-78
2023/06/15 16:30:06;;;;;;;4.37;3.30;;;25.40;42.20;;;;;;10569200;28;20253;-78
2023/06/15 16:35:09;;;;;;;3.60;3.40;;;25.50;41.10;;;;;;10556526;28;20244;-79
2023/06/15 16:40:13;;;;;;;3.40;3.20;;;25.50;41.10;;;;;;10542617;28;20675;-80
2023/06/15 16:45:15;;;;;;;4.10;3.53;;;25.40;41.80;;;;;;10558939;28;20312;-81
2023/06/15 16:50:17;;;;;;;4.27;3.97;;;25.40;41.40;;;;;;10557745;28;20274;-79
2023/06/15 16:55:21;;;;;;;2.80;2.70;;;25.40;40.30;;;;;;10564973;28;20219;-79
2023/06/15 17:00:24;;;;;;;3.30;3.10;;;25.30;41.60;;;;;;10557178;28;20211;-79
2023/06/15 17:05:26;;;;;;;4.90;3.80;;;25.30;42.60;;;;;;10557927;28;20239;-79
2023/06/15 17:10:31;;;;;;;3.80;3.50;;;25.20;41.70;;;;;;10559647;28;20311;-79
2023/06/15 17:15:33;;;;;;;3.70;3.40;;;25.20;41.80;;;;;;10557789;28;20224;-78
2023/06/15 17:20:35;;;;;;;3.83;3.53;;;25.20;40.90;;;;;;10560032;28;20192;-78
2023/06/15 17:25:38;;;;;;;7.23;3.40;;;25.10;41.40;;;;;;10559276;28;20208;-78
2023/06/15 17:30:41;;;;;;;3.20;3.00;;;25.10;41.60;;;;;;10564465;28;20247;-79
2023/06/15 17:35:43;;;;;;;3.80;3.50;;;25.10;42.00;;;;;;10544861;28;20212;-79
2023/06/15 17:40:46;;;;;;;6.23;5.63;;;25.10;42.50;;;;;;10555859;28;20615;-79
2023/06/15 17:45:48;;;;;;;6.10;4.77;;;25.00;42.50;;;;;;10562076;28;20255;-80
2023/06/15 17:50:51;;;;;;;4.60;4.27;;;25.00;42.30;;;;;;10553289;28;20235;-79
2023/06/15 17:55:57;;;;;;;4.80;3.63;;;25.00;42.20;;;;;;10554214;28;20215;-79
2023/06/15 18:01:00;;;;;;;4.23;3.93;;;25.00;41.80;;;;;;10561429;28;20196;-79
2023/06/15 18:06:02;;;;;;;4.30;3.90;;;25.00;43.20;;;;;;10561379;28;20598;-80
2023/06/15 18:11:06;;;;;;;4.30;4.00;;;24.90;43.90;;;;;;10559190;28;20228;-80
2023/06/15 18:16:08;;;;;;;4.60;4.30;;;24.80;43.70;;;;;;10550593;28;20302;-80
2023/06/15 18:21:11;;;;;;;4.30;3.90;;;24.80;43.40;;;;;;10565079;28;20555;-80
2023/06/15 18:26:14;;;;;;;5.23;4.37;;;24.70;44.20;;;;;;10561513;28;20212;-80
2023/06/15 18:31:16;;;;;;;4.47;4.17;;;24.60;45.00;;;;;;10554304;28;20216;-80
2023/06/15 18:36:18;;;;;;;5.70;5.20;;;24.50;44.90;;;;;;10556885;28;20243;-78
2023/06/15 18:41:22;;;;;;;4.50;4.20;;;24.40;45.00;;;;;;10546491;28;20649;-79
2023/06/15 18:46:24;;;;;;;4.20;3.90;;;24.40;45.30;;;;;;10550551;28;20631;-80
2023/06/15 18:51:26;;;;;;;4.20;3.90;;;24.30;44.20;;;;;;10548392;28;20217;-80
2023/06/15 18:56:31;;;;;;;3.53;3.33;;;24.30;45.10;;;;;;10551799;28;20228;-79
2023/06/15 19:01:33;;;;;;;4.20;3.90;;;24.20;46.30;;;;;;10557391;28;20271;-79
2023/06/15 19:06:35;;;;;;;3.80;3.60;;;24.20;45.10;;;;;;10552762;28;20276;-79
2023/06/15 19:11:38;;;;;;;4.07;3.87;;;24.10;46.70;;;;;;10557184;28;20264;-79
2023/06/15 19:16:41;;;;;;;4.67;4.37;;;24.00;46.70;;;;;;10554269;28;20204;-78
2023/06/15 19:21:43;;;;;;;4.33;4.03;;;24.00;45.90;;;;;;10564378;28;20200;-79
2023/06/15 19:26:47;;;;;;;4.50;4.20;;;23.90;47.20;;;;;;10561861;28;20295;-79
2023/06/15 19:31:51;;;;;;;5.27;4.87;;;23.80;47.40;;;;;;10562099;28;20563;-79
2023/06/15 19:36:56;;;;;;;3.83;3.63;;;23.80;48.30;;;;;;10560036;28;20668;-79
2023/06/15 19:41:59;;;;;;;4.60;4.30;;;23.70;48.50;;;;;;10560125;28;20269;-80
2023/06/15 19:47:02;;;;;;;6.27;4.43;;;23.60;48.80;;;;;;10562056;28;20686;-79
2023/06/15 19:52:06;;;;;;;4.53;4.23;;;23.50;49.60;;;;;;10565365;28;20220;-79
2023/06/15 19:57:10;;;;;;;4.07;3.83;;;23.40;49.10;;;;;;10558636;28;20228;-80
2023/06/15 20:02:12;;;;;;;4.43;4.13;;;23.30;49.40;;;;;;10555354;28;20222;-79
2023/06/15 20:07:14;;;;;;;4.50;4.20;;;23.10;50.00;;;;;;10566239;28;20719;-80
2023/06/15 20:12:17;;;;;;;4.50;4.10;;;23.00;50.50;;;;;;10561494;28;20701;-78
2023/06/15 20:17:20;;;;;;;5.10;4.77;;;22.90;50.60;;;;;;10563544;28;20217;-78
2023/06/15 20:22:22;;;;;;;5.40;5.00;;;22.70;50.90;;;;;;10556903;28;20220;-79
2023/06/15 20:27:25;;;;;;;4.87;4.57;;;22.60;51.30;;;;;;10566041;28;20204;-80
2023/06/15 20:32:29;;;;;;;4.30;4.00;;;22.40;51.90;;;;;;10566959;28;20788;-79
2023/06/15 20:37:32;;;;;;;5.30;4.80;;;22.20;52.30;;;;;;10567628;28;20193;-79
2023/06/15 20:42:35;;;;;;;5.17;4.67;;;22.10;52.60;;;;;;10560819;28;20212;-80
2023/06/15 20:47:37;;;;;;;5.00;4.50;;;22.00;53.20;;;;;;10548900;28;20224;-79
2023/06/15 20:52:41;;;;;;;4.50;4.20;;;21.90;53.60;;;;;;10561096;28;20654;-80
2023/06/15 20:57:45;;;;;;;5.10;4.60;;;21.80;54.00;;;;;;10565535;28;20585;-80
2023/06/15 21:02:47;;;;;;;4.70;4.30;;;21.80;54.30;;;;;;10562147;28;20223;-79
2023/06/15 21:07:49;;;;;;;4.83;4.43;;;21.70;54.00;;;;;;10558796;28;20244;-79
2023/06/15 21:12:52;;;;;;;4.37;4.00;;;21.60;54.60;;;;;;10561269;28;20220;-79
2023/06/15 21:17:55;;;;;;;4.80;4.27;;;21.60;55.70;;;;;;10558735;28;20246;-79
2023/06/15 21:22:57;;;;;;;4.23;3.93;;;21.50;55.80;;;;;;10556488;28;20671;-79
2023/06/15 21:28:00;;;;;;;5.10;4.60;;;21.50;55.60;;;;;;10571791;28;20231;-79
2023/06/15 21:33:02;;;;;;;4.83;4.33;;;21.40;56.10;;;;;;10564594;28;20219;-78
2023/06/15 21:38:05;;;;;;;4.63;4.33;;;21.40;56.20;;;;;;10551845;28;20243;-78
2023/06/15 21:43:08;;;;;;;4.90;4.53;;;21.40;56.00;;;;;;10553706;28;20307;-79
2023/06/15 21:48:10;;;;;;;5.23;4.83;;;21.40;56.10;;;;;;10552675;28;20232;-78
2023/06/15 21:53:12;;;;;;;4.30;4.00;;;21.40;56.90;;;;;;10563625;28;20655;-78
2023/06/15 21:58:16;;;;;;;4.83;4.43;;;21.30;57.80;;;;;;10545352;28;20192;-78
2023/06/15 22:03:18;;;;;;;4.70;4.30;;;21.30;57.20;;;;;;10554925;28;20315;-77
2023/06/15 22:08:21;;;;;;;4.37;4.00;;;21.30;56.00;;;;;;10561215;28;20634;-79
2023/06/15 22:13:25;;;;;;;6.53;5.13;;;21.30;57.50;;;;;;10555582;28;20219;-77
2023/06/15 22:18:28;;;;;;;4.90;4.50;;;21.30;57.70;;;;;;10557213;28;20261;-79
2023/06/15 22:23:30;;;;;;;5.20;4.80;;;21.40;57.40;;;;;;10581679;22;20243;-77
2023/06/15 22:28:34;;;;;;;5.17;4.73;;;21.30;57.00;;;;;;10581212;28;20195;-75
2023/06/15 22:33:36;;;;;;;4.87;4.50;;;21.20;57.40;;;;;;10543402;28;20254;-77
2023/06/15 22:38:39;;;;;;;4.30;4.00;;;21.20;57.20;;;;;;10522572;28;20276;-77
2023/06/15 22:43:43;;;;;;;4.90;4.50;;;21.10;57.80;;;;;;10536733;28;20212;-76
2023/06/15 22:48:46;;;;;;;5.83;4.40;;;21.10;58.40;;;;;;10538571;28;20212;-77
2023/06/15 22:53:49;;;;;;;5.30;4.90;;;21.00;57.90;;;;;;10540539;28;20307;-77
2023/06/15 22:58:52;;;;;;;5.00;4.70;;;21.00;57.50;;;;;;10546283;28;20207;-76
2023/06/15 23:03:54;;;;;;;4.50;4.20;;;21.00;57.60;;;;;;10547424;28;20301;-76
2023/06/15 23:08:57;;;;;;;4.70;4.40;;;21.00;57.70;;;;;;10545410;28;20196;-77
2023/06/15 23:14:01;;;;;;;4.90;4.60;;;20.90;57.90;;;;;;10547539;28;20220;-76
2023/06/15 23:19:04;;;;;;;4.80;4.50;;;20.90;58.30;;;;;;10531710;28;20204;-77
2023/06/15 23:24:07;;;;;;;4.90;4.50;;;20.80;57.90;;;;;;10522149;28;20236;-78
2023/06/15 23:29:10;;;;;;;5.13;4.73;;;20.70;58.10;;;;;;10516106;28;20227;-76
2023/06/15 23:34:13;;;;;;;5.53;5.07;;;20.60;58.40;;;;;;10520878;28;20216;-77
2023/06/15 23:39:15;;;;;;;6.33;5.10;;;20.50;58.60;;;;;;10542710;28;20228;-77
2023/06/15 23:44:18;;;;;;;4.37;4.07;;;20.50;59.10;;;;;;10544659;28;20224;-77
2023/06/15 23:49:20;;;;;;;5.53;5.13;;;20.40;58.30;;;;;;10518899;28;20196;-77
2023/06/15 23:54:23;;;;;;;4.40;4.10;;;20.30;58.60;;;;;;10549993;28;20750;-78
2023/06/15 23:59:26;;;;;;;5.13;4.73;;;20.30;59.30;;;;;;10544253;28;20200;-77
